M S San Francisco — WZC3886 — position and weather

sailwx.info

Track history (hours):
 
Tides and Currents Weather Stations Pressure Air Temp Water Temp Dewpoint Dewpoint Depression Visibility Wind Speed Wind Dir Waves Ship Positions

M S San Francisco

Owner: GOLDEN GATE BRIDGE HWY & TRANSP DISTRICT, LARKSPUR, CA. More information available from US FCC via Universal Licensing System and Coast Guard Vessel Documentation Center.

Last reported at 2017-Feb-23 05:33 UTC. Time now 2017-Mar-01 18:01 UTC.
Position N 37°57' W 122°31'.

Length 58 m.

Type: Passenger vessel. MMSI: 366963980.

Date/timePositionNaut miles runAvg speedWind from/ knotsBaromVisibWave heightAir tempDewpointWater temp
2017-Feb-23 05:33N 37°57' W 122°31'6 5.5
2017-Feb-23 04:33N 37°51' W 122°29'1 0.5
2017-Feb-23 03:33N 37°51' W 122°28'3 2.6
2017-Feb-23 02:34N 37°50' W 122°25'2 2.5
2017-Feb-23 01:33N 37°48' W 122°24'5 5.4
2017-Feb-23 00:33N 37°51' W 122°29'3 3.2
2017-Feb-22 23:34N 37°50' W 122°25'2 2.4
2017-Feb-22 22:33N 37°48' W 122°24'5 5.4
2017-Feb-22 21:34N 37°51' W 122°29'4 4.3
2017-Feb-22 20:34N 37°49' W 122°24'1 1.5
2017-Feb-22 19:33N 37°48' W 122°24'5 5.4
2017-Feb-22 18:33N 37°51' W 122°29'5 5.4
2017-Feb-22 17:33N 37°48' W 122°24'2 2.2
2017-Feb-22 16:34N 37°49' W 122°25'2 2.2
2017-Feb-22 15:33N 37°48' W 122°23'9 9.5
2017-Feb-22 14:34N 37°56' W 122°29'1 1.1
2017-Feb-22 13:34N 37°57' W 122°31'0 0.0
2017-Feb-22 12:34N 37°57' W 122°31'0 0.0
2017-Feb-22 11:33N 37°57' W 122°31'0 0.0
2017-Feb-22 10:34N 37°57' W 122°31'0 0.0
2017-Feb-22 09:34N 37°57' W 122°31'0 0.0
2017-Feb-22 08:33N 37°57' W 122°31'0 0.0
2017-Feb-22 07:34N 37°57' W 122°31'0 0.0
2017-Feb-22 06:34N 37°57' W 122°31'0 0.0
2017-Feb-22 05:33N 37°57' W 122°31'6 5.6
2017-Feb-22 04:34N 37°51' W 122°29'1 0.5
2017-Feb-22 03:33N 37°51' W 122°28'5 5.0
2017-Feb-22 02:33N 37°48' W 122°23'0 0.2
2017-Feb-22 01:34N 37°48' W 122°24'5 5.4
2017-Feb-22 00:33N 37°51' W 122°29'3 3.2
2017-Feb-21 23:33N 37°50' W 122°25'2 2.4
2017-Feb-21 22:33N 37°48' W 122°24'5 5.4
2017-Feb-21 21:33N 37°51' W 122°29'4 4.2
2017-Feb-21 20:34N 37°49' W 122°24'1 1.3
2017-Feb-21 19:33N 37°48' W 122°24'5 5.4
2017-Feb-21 18:33N 37°51' W 122°29'5 5.4
2017-Feb-21 17:33N 37°48' W 122°24'3 2.6
2017-Feb-21 16:34N 37°50' W 122°25'3 2.6
2017-Feb-21 15:33N 37°48' W 122°23'9 8.7
2017-Feb-21 14:34N 37°56' W 122°28'2 2.1
2017-Feb-21 13:33N 37°57' W 122°31'0 0.0
2017-Feb-21 12:33N 37°57' W 122°31'0 0.0
2017-Feb-21 11:34N 37°57' W 122°31'0 0.0
2017-Feb-21 10:33N 37°57' W 122°31'0 0.0
2017-Feb-21 09:34N 37°57' W 122°31'0 0.0
2017-Feb-21 08:33N 37°57' W 122°31'0 0.0
2017-Feb-21 07:34N 37°57' W 122°31'0 0.0
2017-Feb-21 06:34N 37°57' W 122°31'0 0.0
2017-Feb-21 05:33N 37°57' W 122°31'0 0.0
2017-Feb-21 04:34N 37°57' W 122°31'1110.5
2017-Feb-21 03:33N 37°48' W 122°24'5 5.4
2017-Feb-21 02:34N 37°51' W 122°29'5 5.4
2017-Feb-21 01:33N 37°48' W 122°24'10 9.7
2017-Feb-21 00:33N 37°56' W 122°30'10 9.9
2017-Feb-20 23:33N 37°48' W 122°24'0 0.0
2017-Feb-20 22:33N 37°48' W 122°24'1110.5
2017-Feb-20 21:33N 37°57' W 122°31'1110.5
2017-Feb-20 20:33N 37°48' W 122°24'1110.5
2017-Feb-20 19:33N 37°57' W 122°31'0 0.0
2017-Feb-20 03:21N 37°57' W 122°31'1011.9
2017-Feb-20 02:33N 37°49' W 122°24'5 4.7
2017-Feb-20 01:34N 37°51' W 122°29'5 5.4
2017-Feb-20 00:33N 37°48' W 122°24'5 5.4
2017-Feb-19 23:33N 37°51' W 122°29'5 5.3
2017-Feb-19 22:34N 37°48' W 122°23'1 1.0
2017-Feb-19 21:34N 37°49' W 122°24'5 4.6
2017-Feb-19 20:33N 37°51' W 122°29'3 2.8
2017-Feb-19 19:34N 37°50' W 122°26'3 2.7
2017-Feb-19 18:33N 37°48' W 122°24'1010.4
2017-Feb-19 17:33N 37°57' W 122°30'0 0.0
2017-Feb-19 04:32N 37°57' W 122°31'1010.9
2017-Feb-19 03:34N 37°48' W 122°24'5 5.4
2017-Feb-19 02:33N 37°51' W 122°29'5 5.4
2017-Feb-19 01:33N 37°48' W 122°24'1110.5
2017-Feb-19 00:34N 37°57' W 122°31'1110.5
2017-Feb-18 23:33N 37°48' W 122°24'0 0.0
2017-Feb-18 22:34N 37°48' W 122°24'1110.5
2017-Feb-18 21:33N 37°57' W 122°31'1110.5
2017-Feb-18 20:33N 37°48' W 122°24'1110.5
2017-Feb-18 19:33N 37°57' W 122°31'0 0.0
2017-Feb-17 21:24N 37°57' W 122°31'0 0.0
2017-Feb-17 19:20N 37°57' W 122°31'5 6.9
2017-Feb-17 18:33N 37°53' W 122°25'2 2.2
2017-Feb-17 17:33N 37°55' W 122°27'  
2017-Feb-15 05:29N 37°57' W 122°31'6 6.0
2017-Feb-15 04:33N 37°51' W 122°29'0 0.1
2017-Feb-15 03:34N 37°51' W 122°29'3 2.9
2017-Feb-15 02:33N 37°50' W 122°25'3 2.5
2017-Feb-15 01:33N 37°48' W 122°24'5 5.4
2017-Feb-15 00:34N 37°51' W 122°29'2 2.1
2017-Feb-14 23:33N 37°50' W 122°26'3 3.4
2017-Feb-14 22:33N 37°48' W 122°24'5 5.4
2017-Feb-14 21:33N 37°51' W 122°29'4 3.8
2017-Feb-14 20:34N 37°49' W 122°25'2 1.8
2017-Feb-14 19:33N 37°48' W 122°24'5 5.4
2017-Feb-14 18:33N 37°51' W 122°29'5 5.4
2017-Feb-14 17:33N 37°48' W 122°24'2 2.5
2017-Feb-14 16:33N 37°50' W 122°25'2 2.4
2017-Feb-14 15:33N 37°48' W 122°23'9 8.6
2017-Feb-14 14:33N 37°56' W 122°28'2 0.2
2017-Feb-14 05:33N 37°57' W 122°30'6 5.6
2017-Feb-14 04:34N 37°51' W 122°29'2 1.6
2017-Feb-14 03:33N 37°51' W 122°27'3 3.1
2017-Feb-14 02:33N 37°49' W 122°24'1 0.9
2017-Feb-14 01:33N 37°48' W 122°24'5 5.4
2017-Feb-14 00:33N 37°51' W 122°29'3 2.5
2017-Feb-13 23:33N 37°50' W 122°26'3 3.0
2017-Feb-13 22:33N 37°48' W 122°24'5 5.4
2017-Feb-13 21:33N 37°51' W 122°29'4 4.2
2017-Feb-13 20:34N 37°49' W 122°24'2 1.5
2017-Feb-13 19:33N 37°48' W 122°24'5 5.4
2017-Feb-13 18:33N 37°51' W 122°29'5 5.4
2017-Feb-13 17:34N 37°48' W 122°24'3 2.6
2017-Feb-13 16:34N 37°50' W 122°25'2 2.4
2017-Feb-13 15:34N 37°48' W 122°23'10 9.6
2017-Feb-13 14:33N 37°56' W 122°30'  
Track history (hours):
 
Tides and Currents Weather Stations Pressure Air Temp Water Temp Dewpoint Dewpoint Depression Visibility Wind Speed Wind Dir Waves Ship Positions

M S San Francisco

Owner: GOLDEN GATE BRIDGE HWY & TRANSP DISTRICT, LARKSPUR, CA. More information available from US FCC via Universal Licensing System and Coast Guard Vessel Documentation Center.

Last reported at 2017-Feb-23 05:33 UTC. Time now 2017-Mar-01 18:01 UTC.
Position N 37°57' W 122°31'.

Length 58 m.

Type: Passenger vessel. MMSI: 366963980.

Date/timePositionNaut miles runAvg speedWind from/ knotsBaromVisibWave heightAir tempDewpointWater temp
2017-Feb-23 05:33N 37°57' W 122°31'6 5.5
2017-Feb-23 04:33N 37°51' W 122°29'1 0.5
2017-Feb-23 03:33N 37°51' W 122°28'3 2.6
2017-Feb-23 02:34N 37°50' W 122°25'2 2.5
2017-Feb-23 01:33N 37°48' W 122°24'5 5.4
2017-Feb-23 00:33N 37°51' W 122°29'3 3.2
2017-Feb-22 23:34N 37°50' W 122°25'2 2.4
2017-Feb-22 22:33N 37°48' W 122°24'5 5.4
2017-Feb-22 21:34N 37°51' W 122°29'4 4.3
2017-Feb-22 20:34N 37°49' W 122°24'1 1.5
2017-Feb-22 19:33N 37°48' W 122°24'5 5.4
2017-Feb-22 18:33N 37°51' W 122°29'5 5.4
2017-Feb-22 17:33N 37°48' W 122°24'2 2.2
2017-Feb-22 16:34N 37°49' W 122°25'2 2.2
2017-Feb-22 15:33N 37°48' W 122°23'9 9.5
2017-Feb-22 14:34N 37°56' W 122°29'1 1.1
2017-Feb-22 13:34N 37°57' W 122°31'0 0.0
2017-Feb-22 12:34N 37°57' W 122°31'0 0.0
2017-Feb-22 11:33N 37°57' W 122°31'0 0.0
2017-Feb-22 10:34N 37°57' W 122°31'0 0.0
2017-Feb-22 09:34N 37°57' W 122°31'0 0.0
2017-Feb-22 08:33N 37°57' W 122°31'0 0.0
2017-Feb-22 07:34N 37°57' W 122°31'0 0.0
2017-Feb-22 06:34N 37°57' W 122°31'0 0.0
2017-Feb-22 05:33N 37°57' W 122°31'6 5.6
2017-Feb-22 04:34N 37°51' W 122°29'1 0.5
2017-Feb-22 03:33N 37°51' W 122°28'5 5.0
2017-Feb-22 02:33N 37°48' W 122°23'0 0.2
2017-Feb-22 01:34N 37°48' W 122°24'5 5.4
2017-Feb-22 00:33N 37°51' W 122°29'3 3.2
2017-Feb-21 23:33N 37°50' W 122°25'2 2.4
2017-Feb-21 22:33N 37°48' W 122°24'5 5.4
2017-Feb-21 21:33N 37°51' W 122°29'4 4.2
2017-Feb-21 20:34N 37°49' W 122°24'1 1.3
2017-Feb-21 19:33N 37°48' W 122°24'5 5.4
2017-Feb-21 18:33N 37°51' W 122°29'5 5.4
2017-Feb-21 17:33N 37°48' W 122°24'3 2.6
2017-Feb-21 16:34N 37°50' W 122°25'3 2.6
2017-Feb-21 15:33N 37°48' W 122°23'9 8.7
2017-Feb-21 14:34N 37°56' W 122°28'2 2.1
2017-Feb-21 13:33N 37°57' W 122°31'0 0.0
2017-Feb-21 12:33N 37°57' W 122°31'0 0.0
2017-Feb-21 11:34N 37°57' W 122°31'0 0.0
2017-Feb-21 10:33N 37°57' W 122°31'0 0.0
2017-Feb-21 09:34N 37°57' W 122°31'0 0.0
2017-Feb-21 08:33N 37°57' W 122°31'0 0.0
2017-Feb-21 07:34N 37°57' W 122°31'0 0.0
2017-Feb-21 06:34N 37°57' W 122°31'0 0.0
2017-Feb-21 05:33N 37°57' W 122°31'0 0.0
2017-Feb-21 04:34N 37°57' W 122°31'1110.5
2017-Feb-21 03:33N 37°48' W 122°24'5 5.4
2017-Feb-21 02:34N 37°51' W 122°29'5 5.4
2017-Feb-21 01:33N 37°48' W 122°24'10 9.7
2017-Feb-21 00:33N 37°56' W 122°30'10 9.9
2017-Feb-20 23:33N 37°48' W 122°24'0 0.0
2017-Feb-20 22:33N 37°48' W 122°24'1110.5
2017-Feb-20 21:33N 37°57' W 122°31'1110.5
2017-Feb-20 20:33N 37°48' W 122°24'1110.5
2017-Feb-20 19:33N 37°57' W 122°31'0 0.0
2017-Feb-20 03:21N 37°57' W 122°31'1011.9
2017-Feb-20 02:33N 37°49' W 122°24'5 4.7
2017-Feb-20 01:34N 37°51' W 122°29'5 5.4
2017-Feb-20 00:33N 37°48' W 122°24'5 5.4
2017-Feb-19 23:33N 37°51' W 122°29'5 5.3
2017-Feb-19 22:34N 37°48' W 122°23'1 1.0
2017-Feb-19 21:34N 37°49' W 122°24'5 4.6
2017-Feb-19 20:33N 37°51' W 122°29'3 2.8
2017-Feb-19 19:34N 37°50' W 122°26'3 2.7
2017-Feb-19 18:33N 37°48' W 122°24'1010.4
2017-Feb-19 17:33N 37°57' W 122°30'0 0.0
2017-Feb-19 04:32N 37°57' W 122°31'1010.9
2017-Feb-19 03:34N 37°48' W 122°24'5 5.4
2017-Feb-19 02:33N 37°51' W 122°29'5 5.4
2017-Feb-19 01:33N 37°48' W 122°24'1110.5
2017-Feb-19 00:34N 37°57' W 122°31'1110.5
2017-Feb-18 23:33N 37°48' W 122°24'0 0.0
2017-Feb-18 22:34N 37°48' W 122°24'1110.5
2017-Feb-18 21:33N 37°57' W 122°31'1110.5
2017-Feb-18 20:33N 37°48' W 122°24'1110.5
2017-Feb-18 19:33N 37°57' W 122°31'0 0.0
2017-Feb-17 21:24N 37°57' W 122°31'0 0.0
2017-Feb-17 19:20N 37°57' W 122°31'5 6.9
2017-Feb-17 18:33N 37°53' W 122°25'2 2.2
2017-Feb-17 17:33N 37°55' W 122°27'  
2017-Feb-15 05:29N 37°57' W 122°31'6 6.0
2017-Feb-15 04:33N 37°51' W 122°29'0 0.1
2017-Feb-15 03:34N 37°51' W 122°29'3 2.9
2017-Feb-15 02:33N 37°50' W 122°25'3 2.5
2017-Feb-15 01:33N 37°48' W 122°24'5 5.4
2017-Feb-15 00:34N 37°51' W 122°29'2 2.1
2017-Feb-14 23:33N 37°50' W 122°26'3 3.4
2017-Feb-14 22:33N 37°48' W 122°24'5 5.4
2017-Feb-14 21:33N 37°51' W 122°29'4 3.8
2017-Feb-14 20:34N 37°49' W 122°25'2 1.8
2017-Feb-14 19:33N 37°48' W 122°24'5 5.4
2017-Feb-14 18:33N 37°51' W 122°29'5 5.4
2017-Feb-14 17:33N 37°48' W 122°24'2 2.5
2017-Feb-14 16:33N 37°50' W 122°25'2 2.4
2017-Feb-14 15:33N 37°48' W 122°23'9 8.6
2017-Feb-14 14:33N 37°56' W 122°28'2 0.2
2017-Feb-14 05:33N 37°57' W 122°30'6 5.6
2017-Feb-14 04:34N 37°51' W 122°29'2 1.6
2017-Feb-14 03:33N 37°51' W 122°27'3 3.1
2017-Feb-14 02:33N 37°49' W 122°24'1 0.9
2017-Feb-14 01:33N 37°48' W 122°24'5 5.4
2017-Feb-14 00:33N 37°51' W 122°29'3 2.5
2017-Feb-13 23:33N 37°50' W 122°26'3 3.0
2017-Feb-13 22:33N 37°48' W 122°24'5 5.4
2017-Feb-13 21:33N 37°51' W 122°29'4 4.2
2017-Feb-13 20:34N 37°49' W 122°24'2 1.5
2017-Feb-13 19:33N 37°48' W 122°24'5 5.4
2017-Feb-13 18:33N 37°51' W 122°29'5 5.4
2017-Feb-13 17:34N 37°48' W 122°24'3 2.6
2017-Feb-13 16:34N 37°50' W 122°25'2 2.4
2017-Feb-13 15:34N 37°48' W 122°23'10 9.6
2017-Feb-13 14:33N 37°56' W 122°30'  

Dump ship's entire track history